Time;durP1;ratioP1;P1;durP2;ratioP2;P2;SDS_P1;SDS_P2;PMS_P1;PMS_P2;Temp;Humidity;BMP_temperature;BMP_pressure;BME280_temperature;BME280_humidity;BME280_pressure;Samples;Min_cycle;Max_cycle;Signal;HPM_P1;HPM_P2
2022/01/06 00:01:39;;;;;;;3.33;1.20;;;2.90;99.90;;;;;;4975425;28;20448;-75
2022/01/06 00:04:06;;;;;;;5.88;0.52;;;2.90;99.90;;;;;;4980132;28;20128;-75
2022/01/06 00:06:38;;;;;;;5.25;0.70;;;2.90;99.90;;;;;;4971329;28;20050;-75
2022/01/06 00:09:07;;;;;;;9.18;1.10;;;2.80;99.90;;;;;;4977631;28;20509;-75
2022/01/06 00:11:34;;;;;;;2.55;1.08;;;2.70;99.90;;;;;;4967437;28;20116;-74
2022/01/06 00:14:56;;;;;;;7.03;0.88;;;2.70;99.90;;;;;;4983448;28;20133;-74
2022/01/06 00:24:50;;;;;;;8.02;0.93;;;2.50;99.90;;;;;;4974301;28;20440;-74
2022/01/06 00:27:16;;;;;;;14.20;3.40;;;2.50;99.90;;;;;;4968086;28;20129;-74
2022/01/06 00:29:43;;;;;;;9.98;1.17;;;2.50;99.90;;;;;;4984695;28;20137;-74
2022/01/06 00:32:10;;;;;;;6.03;0.88;;;2.40;99.90;;;;;;4973632;28;20153;-74
2022/01/06 00:34:37;;;;;;;8.02;0.80;;;2.40;99.90;;;;;;4986313;28;20058;-74
2022/01/06 00:37:03;;;;;;;9.32;0.88;;;2.40;99.90;;;;;;4985489;28;20448;-74
2022/01/06 00:39:30;;;;;;;6.22;0.73;;;2.30;99.90;;;;;;4964766;28;20095;-74
2022/01/06 00:41:59;;;;;;;4.95;0.88;;;2.30;99.90;;;;;;4969237;28;20113;-74
2022/01/06 00:44:26;;;;;;;1.60;0.57;;;2.30;99.90;;;;;;4995709;28;20050;-75
2022/01/06 00:46:53;;;;;;;11.40;1.63;;;2.20;99.90;;;;;;4988383;28;20240;-74
2022/01/06 00:49:20;;;;;;;10.57;0.98;;;2.20;99.90;;;;;;4974900;28;20509;-73
2022/01/06 00:51:47;;;;;;;3.83;0.63;;;2.20;99.90;;;;;;4987306;28;20054;-74
2022/01/06 00:54:14;;;;;;;5.20;0.40;;;2.10;99.90;;;;;;5001831;28;20762;-74
2022/01/06 00:56:41;;;;;;;1.58;0.60;;;2.10;99.90;;;;;;4970708;28;20805;-74
2022/01/06 00:59:08;;;;;;;2.10;0.70;;;2.00;99.90;;;;;;4987906;28;20093;-75
2022/01/06 01:01:35;;;;;;;3.05;0.40;;;2.00;99.90;;;;;;4985457;28;20089;-74
2022/01/06 01:04:02;;;;;;;12.27;0.75;;;2.00;99.90;;;;;;4984723;28;20157;-74
2022/01/06 01:06:29;;;;;;;3.05;0.55;;;2.00;99.90;;;;;;4953233;28;20050;-74
2022/01/06 01:08:56;;;;;;;2.80;0.50;;;2.00;99.90;;;;;;4984574;28;20054;-74
2022/01/06 01:11:22;;;;;;;5.07;0.47;;;1.90;99.90;;;;;;4988597;28;20058;-74
2022/01/06 01:13:55;;;;;;;5.85;0.65;;;1.80;99.90;;;;;;4957412;28;20086;-74
2022/01/06 01:19:37;;;;;;;7.50;0.90;;;1.80;99.90;;;;;;4953543;28;20077;-85
2022/01/06 01:22:04;;;;;;;4.13;0.43;;;1.80;99.90;;;;;;4956621;29;20047;-85
2022/01/06 01:24:31;;;;;;;4.18;0.52;;;1.70;99.90;;;;;;4956921;28;20578;-85
2022/01/06 01:26:58;;;;;;;4.03;0.80;;;1.70;99.90;;;;;;4956990;29;20090;-84
2022/01/06 01:29:45;;;;;;;4.85;0.68;;;1.70;99.90;;;;;;4956498;28;20051;-85
2022/01/06 01:32:12;;;;;;;3.83;1.00;;;1.60;99.90;;;;;;4957801;28;20131;-84
2022/01/06 01:34:40;;;;;;;1.45;0.68;;;1.60;99.90;;;;;;4953733;29;20055;-85
2022/01/06 01:37:07;;;;;;;2.15;0.52;;;1.60;99.90;;;;;;4956029;28;20119;-85
2022/01/06 01:39:33;;;;;;;2.28;0.40;;;1.50;99.90;;;;;;4956254;28;20082;-85
2022/01/06 01:42:01;;;;;;;4.35;0.50;;;1.50;99.90;;;;;;4956536;29;20184;-84
2022/01/06 01:44:27;;;;;;;3.90;0.65;;;1.60;99.90;;;;;;4956698;29;20050;-85
2022/01/06 01:47:03;;;;;;;2.83;0.90;;;1.60;99.90;;;;;;4956616;28;20071;-84
2022/01/06 01:49:47;;;;;;;9.75;0.98;;;1.50;99.90;;;;;;4963950;28;20134;-84
2022/01/06 01:52:13;;;;;;;4.32;0.52;;;1.50;99.90;;;;;;4969682;28;20043;-83
2022/01/06 01:54:40;;;;;;;9.32;0.68;;;1.50;99.90;;;;;;4955846;29;20075;-84
2022/01/06 01:57:07;;;;;;;3.78;0.68;;;1.40;99.90;;;;;;4938211;29;20090;-84
2022/01/06 01:59:34;;;;;;;4.85;0.77;;;1.40;99.90;;;;;;4955130;29;20123;-85
2022/01/06 02:02:01;;;;;;;14.88;0.95;;;1.40;99.90;;;;;;4956204;29;20118;-84
2022/01/06 02:04:28;;;;;;;5.90;0.65;;;1.40;99.90;;;;;;4967608;28;20058;-84
2022/01/06 02:06:54;;;;;;;9.73;0.73;;;1.40;99.90;;;;;;4974418;28;20129;-84
2022/01/06 02:09:21;;;;;;;3.53;0.63;;;1.40;99.90;;;;;;4955664;29;20846;-84
2022/01/06 02:11:48;;;;;;;5.38;0.80;;;1.40;99.90;;;;;;4955646;29;20141;-84
2022/01/06 02:14:15;;;;;;;6.15;0.70;;;1.40;99.90;;;;;;4954176;29;20580;-84
2022/01/06 02:16:45;;;;;;;2.97;0.90;;;1.40;99.90;;;;;;4955800;29;20544;-84
2022/01/06 02:19:12;;;;;;;3.08;0.63;;;1.50;99.90;;;;;;4957973;28;20049;-84
2022/01/06 02:21:41;;;;;;;2.25;0.63;;;1.40;99.90;;;;;;4975405;28;20093;-84
2022/01/06 02:24:08;;;;;;;8.43;0.80;;;1.40;99.90;;;;;;4951904;29;20087;-84
2022/01/06 02:26:35;;;;;;;4.65;0.52;;;1.30;99.90;;;;;;4973033;28;20134;-84
2022/01/06 02:29:02;;;;;;;7.95;0.70;;;1.30;99.90;;;;;;4961550;28;20057;-85
2022/01/06 02:31:42;;;;;;;7.63;0.73;;;1.20;99.90;;;;;;4951654;29;20097;-84
2022/01/06 02:34:09;;;;;;;7.43;1.02;;;1.20;99.90;;;;;;4964098;28;20062;-84
2022/01/06 02:36:36;;;;;;;6.60;0.93;;;1.10;99.90;;;;;;4969660;28;20146;-84
2022/01/06 02:39:03;;;;;;;5.18;0.98;;;1.10;99.90;;;;;;4954212;28;20061;-85
2022/01/06 02:41:32;;;;;;;2.45;0.70;;;1.00;99.90;;;;;;4954826;29;20130;-83
2022/01/06 02:44:00;;;;;;;7.57;0.70;;;1.00;99.90;;;;;;4954266;29;20066;-83
2022/01/06 02:46:27;;;;;;;2.50;0.57;;;0.90;99.90;;;;;;4970311;28;20125;-83
2022/01/06 02:48:57;;;;;;;6.50;0.90;;;0.90;99.90;;;;;;4937704;29;20476;-83
2022/01/06 02:51:26;;;;;;;14.82;1.08;;;0.80;99.90;;;;;;4946658;29;20074;-83
2022/01/06 02:53:53;;;;;;;4.00;0.90;;;0.60;99.90;;;;;;4951760;29;20547;-83
2022/01/06 02:56:19;;;;;;;4.47;0.63;;;0.40;99.90;;;;;;4949817;28;20126;-83
2022/01/06 02:58:46;;;;;;;6.47;1.10;;;0.40;99.90;;;;;;4931649;29;20209;-83
2022/01/06 03:01:13;;;;;;;8.15;0.80;;;0.20;99.90;;;;;;4949302;29;20121;-83
2022/01/06 03:03:40;;;;;;;4.88;0.85;;;0.10;99.90;;;;;;4949404;29;20051;-83
2022/01/06 03:06:07;;;;;;;12.35;1.05;;;0.00;99.90;;;;;;4954206;29;20081;-83
2022/01/06 03:08:37;;;;;;;1.05;0.43;;;0.00;99.90;;;;;;4937426;29;20134;-83
2022/01/06 03:11:04;;;;;;;6.03;1.35;;;-0.10;99.90;;;;;;4954657;29;20055;-83
2022/01/06 03:13:31;;;;;;;1.60;0.52;;;-0.10;99.90;;;;;;4947563;29;20079;-83
2022/01/06 03:15:57;;;;;;;6.45;0.95;;;-0.20;99.90;;;;;;4954313;28;20082;-83
2022/01/06 03:18:24;;;;;;;6.60;0.95;;;-0.20;99.90;;;;;;4953974;28;20054;-83
2022/01/06 03:20:51;;;;;;;10.45;1.27;;;-0.30;99.90;;;;;;4949348;29;20074;-83
2022/01/06 03:23:19;;;;;;;21.02;2.72;;;-0.20;99.90;;;;;;4963447;28;20057;-84
2022/01/06 03:25:46;;;;;;;11.60;2.78;;;-0.20;99.90;;;;;;4954240;29;20130;-84
2022/01/06 03:28:18;;;;;;;24.52;2.40;;;-0.20;99.90;;;;;;4954155;28;20082;-83
2022/01/06 03:30:44;;;;;;;5.22;1.15;;;-0.20;99.90;;;;;;4953574;29;20142;-83
2022/01/06 03:33:11;;;;;;;10.50;1.25;;;-0.30;99.90;;;;;;4952408;28;20135;-82
2022/01/06 03:35:38;;;;;;;7.40;0.98;;;-0.40;99.90;;;;;;4951463;29;20086;-82
2022/01/06 03:38:04;;;;;;;14.25;0.98;;;-0.40;99.90;;;;;;4950515;28;20062;-82
2022/01/06 03:40:31;;;;;;;4.55;0.90;;;-0.40;99.90;;;;;;4949454;28;20154;-82
2022/01/06 03:43:00;;;;;;;8.52;1.25;;;-0.30;99.90;;;;;;4952374;29;20067;-82
2022/01/06 03:45:27;;;;;;;4.57;1.08;;;-0.30;99.90;;;;;;4954283;29;20126;-82
2022/01/06 03:47:53;;;;;;;21.23;1.98;;;-0.30;99.90;;;;;;4954006;29;20071;-82
2022/01/06 03:50:20;;;;;;;9.70;1.70;;;-0.30;99.90;;;;;;4953775;28;20078;-82
2022/01/06 03:52:47;;;;;;;10.15;1.40;;;-0.30;99.90;;;;;;4959990;28;20054;-83
2022/01/06 03:55:18;;;;;;;9.25;1.00;;;-0.30;99.90;;;;;;4937340;29;20074;-82
2022/01/06 03:57:46;;;;;;;5.70;1.50;;;-0.30;99.90;;;;;;4953865;29;20047;-82
2022/01/06 04:00:20;;;;;;;4.75;0.82;;;-0.30;99.90;;;;;;4954030;29;20086;-83
2022/01/06 04:02:49;;;;;;;8.70;1.35;;;-0.30;99.90;;;;;;4952422;28;20043;-83
2022/01/06 04:05:16;;;;;;;11.13;1.60;;;-0.30;99.90;;;;;;4932935;29;20143;-82
2022/01/06 04:07:42;;;;;;;2.22;0.73;;;-0.40;99.90;;;;;;4943938;29;20134;-83
2022/01/06 04:10:10;;;;;;;1.98;0.77;;;-0.30;99.90;;;;;;4970663;28;20077;-83
2022/01/06 04:12:38;;;;;;;6.75;1.15;;;-0.40;99.90;;;;;;4967583;28;20079;-83
2022/01/06 04:15:10;;;;;;;3.92;0.80;;;-0.50;99.90;;;;;;4954702;28;20047;-82
2022/01/06 04:17:37;;;;;;;10.52;1.35;;;-0.40;99.90;;;;;;4957295;28;20077;-83
2022/01/06 04:20:04;;;;;;;13.20;1.10;;;-0.50;99.90;;;;;;4961387;28;20776;-83
2022/01/06 04:22:38;;;;;;;9.60;1.48;;;-0.50;99.90;;;;;;4962927;28;20436;-82
2022/01/06 04:25:06;;;;;;;12.80;1.23;;;-0.40;99.90;;;;;;4962520;28;20571;-83
2022/01/06 04:27:33;;;;;;;3.90;1.08;;;-0.20;99.90;;;;;;4975922;28;20093;-83
2022/01/06 04:30:00;;;;;;;10.95;1.73;;;-0.10;99.90;;;;;;4959150;28;20519;-83
2022/01/06 04:32:27;;;;;;;12.10;1.33;;;0.00;99.90;;;;;;4968301;28;20098;-84
2022/01/06 04:34:53;;;;;;;4.25;1.38;;;0.10;99.90;;;;;;4957707;29;20142;-82
2022/01/06 04:37:20;;;;;;;10.15;1.65;;;0.20;99.90;;;;;;4959207;28;20051;-82
2022/01/06 04:39:48;;;;;;;6.72;1.08;;;0.40;99.90;;;;;;4941606;29;20085;-82
2022/01/06 04:42:15;;;;;;;11.13;1.45;;;0.40;99.90;;;;;;4972484;28;20089;-82
2022/01/06 04:44:42;;;;;;;5.78;1.63;;;0.50;99.90;;;;;;4957092;29;20531;-82
2022/01/06 04:47:10;;;;;;;8.68;1.27;;;0.60;99.90;;;;;;4963847;28;20071;-82
2022/01/06 04:49:37;;;;;;;8.50;1.45;;;0.60;99.90;;;;;;4958702;28;20059;-82
2022/01/06 04:52:41;;;;;;;15.25;1.63;;;0.70;99.90;;;;;;4976505;28;20097;-74
2022/01/06 04:55:09;;;;;;;9.40;2.08;;;0.80;99.90;;;;;;4961279;28;20059;-82
2022/01/06 04:57:36;;;;;;;9.32;2.25;;;0.80;99.90;;;;;;4956808;29;20075;-82
2022/01/06 05:00:07;;;;;;;10.95;2.28;;;0.90;99.90;;;;;;4972829;28;20142;-82
2022/01/06 05:02:34;;;;;;;5.93;1.10;;;0.90;99.90;;;;;;4940883;29;20523;-82
2022/01/06 05:05:01;;;;;;;6.35;1.45;;;0.80;99.90;;;;;;4956444;29;20043;-82
2022/01/06 05:07:32;;;;;;;12.65;1.65;;;0.90;99.90;;;;;;4956784;28;20051;-82
2022/01/06 05:09:59;;;;;;;14.38;1.73;;;0.90;99.90;;;;;;4955180;29;20784;-82
2022/01/06 05:12:26;;;;;;;10.73;2.03;;;1.00;99.90;;;;;;4956691;28;20082;-83
2022/01/06 05:14:52;;;;;;;9.50;1.33;;;1.00;99.90;;;;;;4956521;29;20137;-82
2022/01/06 05:17:20;;;;;;;12.88;2.60;;;1.10;99.90;;;;;;4942230;28;20042;-82
2022/01/06 05:19:47;;;;;;;15.00;1.90;;;1.00;99.90;;;;;;4962216;28;20134;-83
2022/01/06 05:22:13;;;;;;;11.25;1.60;;;0.90;99.90;;;;;;4955943;28;20465;-82
2022/01/06 05:24:40;;;;;;;13.10;1.50;;;0.90;99.90;;;;;;4955014;29;20130;-83
2022/01/06 05:27:10;;;;;;;4.97;1.50;;;0.90;99.90;;;;;;4956299;28;20130;-83
2022/01/06 05:29:52;;;;;;;17.75;1.88;;;0.80;99.90;;;;;;4956059;29;20077;-83
2022/01/06 05:32:19;;;;;;;5.40;1.27;;;0.80;99.90;;;;;;4955804;29;20086;-82
2022/01/06 05:34:46;;;;;;;16.23;2.28;;;0.70;99.90;;;;;;4955391;28;20048;-82
2022/01/06 05:37:12;;;;;;;8.73;1.98;;;0.70;99.90;;;;;;4952562;28;20521;-83
2022/01/06 05:39:39;;;;;;;15.70;1.95;;;0.80;99.90;;;;;;4955709;28;20103;-83
2022/01/06 05:42:06;;;;;;;10.02;1.63;;;0.80;99.90;;;;;;4955536;28;20079;-83
2022/01/06 05:44:34;;;;;;;16.17;1.95;;;0.80;99.90;;;;;;4955702;28;20079;-82
2022/01/06 05:47:02;;;;;;;23.65;5.95;;;0.80;99.90;;;;;;4955910;29;20055;-83
2022/01/06 05:49:29;;;;;;;13.48;1.88;;;0.90;99.90;;;;;;4952158;29;20082;-82
2022/01/06 05:51:56;;;;;;;13.52;2.60;;;1.00;99.90;;;;;;4955592;28;20130;-83
2022/01/06 05:54:26;;;;;;;25.27;2.40;;;1.00;99.90;;;;;;4955949;28;20184;-83
2022/01/06 05:56:58;;;;;;;9.02;1.40;;;1.00;99.90;;;;;;4955837;29;20142;-83
2022/01/06 05:59:25;;;;;;;7.57;2.78;;;0.90;99.90;;;;;;4954805;29;20087;-83
2022/01/06 06:01:52;;;;;;;9.65;2.28;;;0.90;99.90;;;;;;4953387;28;20090;-81
2022/01/06 06:04:21;;;;;;;9.70;1.27;;;0.80;99.90;;;;;;4954007;28;20063;-82
2022/01/06 06:06:48;;;;;;;11.20;2.28;;;0.70;99.90;;;;;;4959026;28;20103;-81
2022/01/06 06:09:14;;;;;;;13.55;2.30;;;0.60;99.90;;;;;;4955194;29;20089;-80
2022/01/06 06:11:41;;;;;;;16.40;2.30;;;0.60;99.90;;;;;;4954687;28;20102;-81
2022/01/06 06:14:08;;;;;;;9.23;2.20;;;0.50;99.90;;;;;;4954688;28;20162;-81
2022/01/06 06:16:35;;;;;;;14.75;5.57;;;0.40;99.90;;;;;;4946345;29;20171;-81
2022/01/06 06:19:02;;;;;;;27.65;17.70;;;0.50;99.90;;;;;;4959205;28;20127;-81
2022/01/06 06:21:29;;;;;;;24.48;14.75;;;0.50;99.90;;;;;;4959789;28;20074;-83
2022/01/06 06:23:56;;;;;;;15.57;6.38;;;0.50;99.90;;;;;;4958537;28;20082;-85
2022/01/06 06:26:23;;;;;;;25.27;9.00;;;0.50;99.90;;;;;;4954976;29;20051;-83
2022/01/06 06:28:50;;;;;;;16.17;5.35;;;0.50;99.90;;;;;;4955554;28;20505;-83
2022/01/06 06:31:16;;;;;;;21.05;8.27;;;0.40;99.90;;;;;;4973838;28;20090;-81
2022/01/06 06:33:43;;;;;;;17.15;7.20;;;0.40;99.90;;;;;;4961285;28;20137;-81
2022/01/06 06:36:10;;;;;;;28.35;10.82;;;0.30;99.90;;;;;;4937579;29;20113;-84
2022/01/06 06:38:38;;;;;;;9.82;2.15;;;0.40;99.90;;;;;;4953791;29;20147;-80
2022/01/06 06:41:04;;;;;;;7.72;3.33;;;0.50;99.90;;;;;;4954086;29;20086;-82
2022/01/06 06:43:31;;;;;;;8.98;2.90;;;0.60;99.90;;;;;;4936660;29;20055;-81
2022/01/06 06:45:59;;;;;;;5.88;1.70;;;0.60;99.90;;;;;;4934984;29;20122;-81
2022/01/06 06:48:27;;;;;;;12.70;1.90;;;0.70;99.90;;;;;;4956398;28;20539;-81
2022/01/06 06:50:54;;;;;;;7.88;2.22;;;0.70;99.90;;;;;;4960487;28;20082;-81
2022/01/06 06:53:20;;;;;;;14.95;2.30;;;0.70;99.90;;;;;;4946083;29;20106;-81
2022/01/06 06:55:47;;;;;;;12.20;2.05;;;0.70;99.90;;;;;;4954415;28;20579;-81
2022/01/06 06:58:14;;;;;;;6.57;2.08;;;0.70;99.90;;;;;;4954025;29;20083;-81
2022/01/06 07:00:41;;;;;;;10.45;2.42;;;0.80;99.90;;;;;;4953714;29;20166;-81
2022/01/06 07:03:08;;;;;;;25.20;3.28;;;0.90;99.90;;;;;;4953966;29;20090;-82
2022/01/06 07:05:35;;;;;;;11.77;1.65;;;0.90;99.90;;;;;;4953926;29;20488;-81
2022/01/06 07:08:02;;;;;;;5.90;1.70;;;0.90;99.90;;;;;;4953931;29;20051;-80
2022/01/06 07:10:29;;;;;;;10.48;1.77;;;0.90;99.90;;;;;;4953116;29;20119;-81
2022/01/06 07:12:56;;;;;;;17.60;2.42;;;0.90;99.90;;;;;;4937852;29;20057;-81
2022/01/06 07:19:06;;;;;;;10.82;1.90;;;0.90;99.90;;;;;;4902119;29;20087;-74
2022/01/06 07:21:33;;;;;;;7.25;1.90;;;0.90;99.90;;;;;;4911402;29;20087;-81
2022/01/06 07:23:59;;;;;;;5.00;1.42;;;1.00;99.90;;;;;;4913919;29;20494;-81
2022/01/06 07:26:26;;;;;;;18.30;1.95;;;1.00;99.90;;;;;;4915378;29;20131;-81
2022/01/06 07:28:53;;;;;;;10.50;1.77;;;1.00;99.90;;;;;;4898879;29;20084;-81
2022/01/06 07:31:19;;;;;;;19.05;1.88;;;0.90;99.90;;;;;;4878910;29;20098;-81
2022/01/06 07:33:46;;;;;;;7.90;1.88;;;0.90;99.90;;;;;;4894802;29;20139;-82
2022/01/06 07:36:13;;;;;;;8.35;1.92;;;0.90;99.90;;;;;;4895568;29;20147;-81
2022/01/06 07:38:40;;;;;;;14.43;1.98;;;1.00;99.90;;;;;;4895720;29;20090;-81
2022/01/06 07:41:06;;;;;;;16.13;1.52;;;0.90;99.90;;;;;;4895785;29;20539;-81
2022/01/06 07:43:33;;;;;;;16.70;1.65;;;0.90;99.90;;;;;;4894685;29;20056;-81
2022/01/06 07:46:00;;;;;;;13.93;1.75;;;0.80;99.90;;;;;;4894559;29;20044;-81
2022/01/06 07:48:37;;;;;;;6.80;1.90;;;0.80;99.90;;;;;;4900103;29;20048;-81
2022/01/06 07:51:04;;;;;;;10.18;2.25;;;0.70;99.90;;;;;;4899309;29;20487;-81
2022/01/06 07:53:30;;;;;;;17.50;2.40;;;0.60;99.90;;;;;;4907355;29;20079;-81
2022/01/06 07:55:57;;;;;;;12.88;2.25;;;0.50;99.90;;;;;;4914673;29;20505;-81
2022/01/06 07:58:25;;;;;;;13.68;2.45;;;0.50;99.90;;;;;;4902737;29;20084;-81
2022/01/06 08:00:52;;;;;;;9.40;1.90;;;0.30;99.90;;;;;;4895290;29;20143;-81
2022/01/06 08:03:19;;;;;;;8.05;2.08;;;0.40;99.90;;;;;;4878992;29;20627;-82
2022/01/06 08:05:46;;;;;;;10.00;2.80;;;0.40;99.90;;;;;;4879171;29;20076;-81
2022/01/06 08:08:17;;;;;;;12.27;2.55;;;0.40;99.90;;;;;;4895618;29;20049;-81
2022/01/06 08:10:44;;;;;;;26.15;2.90;;;0.40;99.90;;;;;;4895181;29;20139;-81
2022/01/06 08:13:11;;;;;;;20.65;3.05;;;0.50;99.90;;;;;;4879065;29;20103;-83
2022/01/06 08:15:38;;;;;;;12.63;2.97;;;0.60;99.90;;;;;;4895853;29;20059;-80
2022/01/06 08:18:04;;;;;;;13.07;2.80;;;0.50;99.90;;;;;;4908624;29;20139;-81
2022/01/06 08:20:31;;;;;;;10.20;2.95;;;0.50;99.90;;;;;;4917395;29;20054;-81
2022/01/06 08:22:59;;;;;;;5.82;2.40;;;0.50;99.90;;;;;;4920363;29;20477;-82
2022/01/06 08:25:26;;;;;;;11.95;3.28;;;0.50;99.90;;;;;;4914475;29;20080;-81
2022/01/06 08:27:53;;;;;;;12.23;3.25;;;0.60;99.90;;;;;;4914097;29;20080;-81
2022/01/06 08:30:20;;;;;;;9.18;2.78;;;0.70;99.90;;;;;;4914379;29;20110;-81
2022/01/06 08:32:47;;;;;;;14.00;2.33;;;0.70;99.90;;;;;;4914396;29;20159;-81
2022/01/06 08:35:14;;;;;;;13.93;3.20;;;0.90;99.90;;;;;;4914552;29;20091;-81
2022/01/06 08:37:41;;;;;;;16.08;2.80;;;0.90;99.90;;;;;;4914343;29;20754;-82
2022/01/06 08:40:08;;;;;;;13.05;2.42;;;1.00;99.90;;;;;;4923096;29;20079;-81
2022/01/06 08:42:35;;;;;;;19.15;2.55;;;1.00;99.90;;;;;;4920237;29;20076;-81
2022/01/06 08:45:03;;;;;;;15.90;2.75;;;1.10;99.90;;;;;;4895832;29;20136;-81
2022/01/06 08:47:31;;;;;;;17.27;3.40;;;1.30;99.90;;;;;;4899359;29;20063;-81
2022/01/06 08:49:57;;;;;;;11.18;2.78;;;1.50;99.90;;;;;;4914721;29;20104;-81
2022/01/06 08:52:25;;;;;;;12.45;2.25;;;1.60;99.90;;;;;;4922641;29;20474;-81
2022/01/06 08:54:51;;;;;;;7.57;2.15;;;1.60;99.90;;;;;;4914179;29;20048;-82
2022/01/06 08:57:18;;;;;;;11.00;2.03;;;1.50;99.90;;;;;;4914235;29;20098;-83
2022/01/06 08:59:45;;;;;;;15.27;2.42;;;1.50;99.90;;;;;;4914123;29;20094;-81
2022/01/06 09:02:12;;;;;;;15.80;3.50;;;1.50;99.90;;;;;;4913976;29;20075;-81
2022/01/06 09:04:39;;;;;;;12.10;2.08;;;1.50;99.90;;;;;;4914544;29;20063;-81
2022/01/06 09:07:05;;;;;;;13.48;1.98;;;1.70;99.90;;;;;;4914279;29;20083;-82
2022/01/06 09:09:32;;;;;;;17.48;2.70;;;1.80;99.90;;;;;;4912975;29;20055;-81
2022/01/06 09:11:59;;;;;;;13.95;2.85;;;1.80;99.90;;;;;;4929258;29;20398;-81
2022/01/06 09:14:26;;;;;;;9.27;2.58;;;1.90;99.90;;;;;;4918147;29;20188;-81
2022/01/06 09:16:54;;;;;;;9.20;2.10;;;1.90;99.90;;;;;;4917733;29;20083;-81
2022/01/06 09:19:23;;;;;;;11.32;2.20;;;1.90;99.90;;;;;;4897451;29;20490;-81
2022/01/06 09:21:50;;;;;;;13.27;2.20;;;2.10;99.90;;;;;;4918457;29;20044;-81
2022/01/06 09:24:18;;;;;;;11.43;2.63;;;2.10;99.90;;;;;;4917578;29;20079;-81
2022/01/06 09:26:45;;;;;;;12.10;3.10;;;2.30;99.90;;;;;;4926982;29;20187;-81
2022/01/06 09:29:13;;;;;;;14.38;3.40;;;2.50;99.90;;;;;;4915454;29;20071;-81
2022/01/06 09:31:42;;;;;;;11.13;2.70;;;2.50;99.90;;;;;;4924275;29;20076;-81
2022/01/06 09:34:10;;;;;;;19.45;2.70;;;2.50;99.90;;;;;;4914353;29;20047;-81
2022/01/06 09:36:41;;;;;;;18.25;2.83;;;2.60;99.90;;;;;;4936925;29;20063;-82
2022/01/06 09:39:09;;;;;;;14.55;2.90;;;2.50;99.90;;;;;;4936847;29;20737;-81
2022/01/06 09:41:37;;;;;;;9.65;2.88;;;2.60;99.90;;;;;;4915661;29;20040;-81
2022/01/06 09:44:04;;;;;;;6.38;2.10;;;2.60;99.90;;;;;;4914161;29;20052;-82
2022/01/06 09:46:52;;;;;;;10.38;2.15;;;3.00;99.90;;;;;;4906642;29;20670;-82
2022/01/06 09:49:20;;;;;;;11.70;1.80;;;3.10;99.90;;;;;;4924255;29;20124;-81
2022/01/06 09:51:47;;;;;;;12.02;2.42;;;3.10;99.90;;;;;;4924266;29;20468;-81
2022/01/06 09:54:14;;;;;;;7.35;1.60;;;3.20;99.90;;;;;;4928625;29;20048;-82
2022/01/06 09:56:40;;;;;;;10.48;2.05;;;3.30;99.90;;;;;;4927120;29;21039;-81
2022/01/06 09:59:07;;;;;;;19.05;3.30;;;3.40;99.90;;;;;;4917295;29;20059;-82
2022/01/06 10:01:34;;;;;;;13.93;4.03;;;3.50;99.90;;;;;;4917905;29;20454;-82
2022/01/06 10:04:02;;;;;;;13.75;4.20;;;3.50;99.90;;;;;;4917502;29;20059;-82
2022/01/06 10:06:30;;;;;;;15.70;4.57;;;3.60;99.90;;;;;;4917853;29;20063;-82
2022/01/06 10:09:02;;;;;;;8.95;1.88;;;4.20;99.90;;;;;;4917564;29;20115;-83
2022/01/06 10:11:31;;;;;;;14.27;1.70;;;4.20;99.90;;;;;;4917506;29;20064;-82
2022/01/06 10:14:09;;;;;;;9.90;1.88;;;4.10;99.90;;;;;;4917726;29;20112;-82
2022/01/06 10:16:44;;;;;;;6.05;1.70;;;4.90;99.90;;;;;;4917549;29;20406;-82
2022/01/06 10:19:12;;;;;;;14.25;2.40;;;5.40;99.90;;;;;;4917249;29;20249;-82
2022/01/06 10:21:46;;;;;;;8.55;1.40;;;6.10;99.90;;;;;;4913767;29;20119;-83
2022/01/06 10:24:14;;;;;;;9.02;1.40;;;5.80;99.90;;;;;;4911272;29;20909;-82
2022/01/06 10:27:06;;;;;;;7.68;1.30;;;5.30;99.90;;;;;;4905020;29;20152;-82
2022/01/06 10:30:04;;;;;;;14.30;2.35;;;4.80;99.90;;;;;;4890065;29;20056;-82
2022/01/06 10:32:32;;;;;;;6.80;2.33;;;4.80;99.90;;;;;;4904782;29;20525;-82
2022/01/06 10:35:02;;;;;;;9.00;2.25;;;4.90;99.90;;;;;;4914930;29;20102;-82
2022/01/06 10:37:30;;;;;;;8.93;2.05;;;5.10;99.90;;;;;;4879766;29;20092;-83
2022/01/06 10:39:59;;;;;;;5.30;1.90;;;5.60;99.90;;;;;;4879627;29;20057;-83
2022/01/06 10:42:29;;;;;;;10.73;2.15;;;5.60;99.90;;;;;;4914432;29;20056;-83
2022/01/06 10:45:00;;;;;;;6.32;1.63;;;5.50;99.90;;;;;;4898256;29;20475;-80
2022/01/06 10:47:39;;;;;;;9.13;1.10;;;5.10;99.90;;;;;;4901270;29;20103;-80
2022/01/06 10:50:15;;;;;;;5.30;1.75;;;5.10;99.90;;;;;;4900013;29;20124;-80
2022/01/06 10:52:55;;;;;;;13.40;1.85;;;4.90;99.90;;;;;;4902063;29;20045;-81
2022/01/06 10:55:26;;;;;;;7.88;2.03;;;5.40;99.90;;;;;;4909001;29;20048;-81
2022/01/06 10:58:05;;;;;;;10.32;2.72;;;5.60;99.90;;;;;;4910207;29;20842;-80
2022/01/06 11:00:40;;;;;;;7.13;1.25;;;5.40;99.90;;;;;;4901342;29;20072;-81
2022/01/06 11:03:28;;;;;;;;;;;5.50;99.90;;;;;;4901673;29;20053;-80
2022/01/06 11:05:57;;;;;;;9.25;1.73;;;5.20;99.90;;;;;;4898306;29;19923;-82
2022/01/06 11:08:29;;;;;;;14.05;1.80;;;4.90;99.90;;;;;;4898350;29;20076;-81
2022/01/06 11:13:35;;;;;;;10.50;1.77;;;4.60;99.90;;;;;;4897465;29;20052;-81
2022/01/06 11:16:03;;;;;;;10.75;2.47;;;4.80;99.90;;;;;;4897657;29;20083;-81
2022/01/06 11:18:31;;;;;;;8.93;1.63;;;5.70;99.90;;;;;;4913382;29;20091;-81
2022/01/06 11:21:16;;;;;;;6.25;1.70;;;7.20;99.90;;;;;;4916063;29;20139;-81
2022/01/06 11:23:43;;;;;;;12.73;2.50;;;7.90;99.90;;;;;;4912466;29;20147;-74
2022/01/06 11:26:22;;;;;;;6.70;1.90;;;9.50;99.90;;;;;;4909753;29;20060;-74
2022/01/06 11:29:00;;;;;;;12.40;1.95;;;10.20;99.90;;;;;;4920109;29;20491;-74
2022/01/06 11:33:56;;;;;;;7.45;1.60;;;9.70;99.90;;;;;;4953878;28;20118;-82
2022/01/06 11:36:25;;;;;;;5.13;2.17;;;9.50;99.90;;;;;;4954591;28;20469;-81
2022/01/06 11:38:53;;;;;;;7.93;2.72;;;9.70;99.90;;;;;;4949109;29;20051;-82
2022/01/06 11:41:25;;;;;;;7.95;2.13;;;9.20;99.90;;;;;;4954303;29;20090;-81
2022/01/06 11:43:57;;;;;;;8.07;1.23;;;8.40;99.90;;;;;;4949731;29;20051;-81
2022/01/06 11:46:25;;;;;;;11.88;2.13;;;7.90;99.90;;;;;;4953881;29;20469;-81
2022/01/06 11:48:54;;;;;;;7.07;1.45;;;7.50;99.90;;;;;;4950703;29;20150;-82
2022/01/06 11:51:27;;;;;;;5.93;1.23;;;8.20;99.90;;;;;;4953187;29;20055;-83
2022/01/06 11:53:55;;;;;;;7.65;1.58;;;8.50;99.90;;;;;;4954638;29;20078;-82
2022/01/06 11:56:23;;;;;;;5.95;0.90;;;8.60;99.90;;;;;;4951560;29;20051;-82
2022/01/06 11:59:02;;;;;;;3.08;0.90;;;8.60;99.90;;;;;;4944610;29;20113;-82
2022/01/06 12:01:45;;;;;;;3.55;1.15;;;8.60;99.90;;;;;;4958614;28;20086;-82
2022/01/06 12:04:20;;;;;;;4.00;1.10;;;7.90;99.90;;;;;;4953243;29;20043;-85
2022/01/06 12:06:47;;;;;;;4.45;1.20;;;7.80;99.90;;;;;;4967965;28;20135;-82
2022/01/06 12:09:20;;;;;;;7.43;1.75;;;7.90;99.90;;;;;;4955204;28;20083;-82
2022/01/06 12:12:05;;;;;;;11.10;1.45;;;8.50;99.90;;;;;;4954378;29;20087;-82
2022/01/06 12:14:32;;;;;;;6.63;1.20;;;8.90;99.90;;;;;;4947208;29;20097;-83
2022/01/06 12:17:04;;;;;;;9.27;1.30;;;9.00;99.90;;;;;;4954368;29;20419;-82
2022/01/06 12:19:31;;;;;;;9.00;1.67;;;8.70;99.90;;;;;;4953800;29;20093;-81
2022/01/06 12:21:59;;;;;;;11.80;1.17;;;8.20;99.90;;;;;;4953373;29;20086;-82
2022/01/06 12:24:30;;;;;;;8.75;1.30;;;8.10;99.90;;;;;;4926075;29;20063;-82
2022/01/06 12:27:03;;;;;;;22.30;2.95;;;7.70;99.90;;;;;;4944278;29;20086;-82
2022/01/06 12:29:38;;;;;;;9.85;1.73;;;7.10;99.90;;;;;;4942473;28;20142;-78
2022/01/06 12:32:07;;;;;;;;;;;6.70;99.90;;;;;;4951559;28;20110;-81
2022/01/06 12:34:33;;;;;;;8.77;1.63;;;6.50;99.90;;;;;;4961928;28;19985;-82
2022/01/06 12:37:01;;;;;;;5.90;1.50;;;6.40;99.90;;;;;;4955335;28;20398;-81
2022/01/06 12:39:28;;;;;;;8.07;1.20;;;6.50;99.90;;;;;;4945903;29;20079;-81
2022/01/06 12:41:54;;;;;;;8.70;1.02;;;6.60;99.90;;;;;;4953603;29;20138;-82
2022/01/06 12:44:27;;;;;;;10.25;1.27;;;6.60;99.90;;;;;;4954254;29;20149;-81
2022/01/06 12:46:55;;;;;;;8.50;1.23;;;6.50;99.90;;;;;;4953787;28;20082;-82
2022/01/06 12:49:23;;;;;;;5.97;1.25;;;6.80;99.90;;;;;;4954572;29;20081;-82
2022/01/06 12:51:51;;;;;;;10.98;1.63;;;6.60;99.90;;;;;;4956383;29;20444;-83
2022/01/06 12:54:20;;;;;;;8.25;1.08;;;6.70;99.90;;;;;;4954940;29;20071;-81
2022/01/06 12:57:00;;;;;;;3.50;0.90;;;6.90;99.90;;;;;;4956986;29;20082;-81
2022/01/06 12:59:37;;;;;;;8.23;1.45;;;6.90;99.90;;;;;;4956603;29;20864;-81
2022/01/06 13:02:07;;;;;;;5.55;1.33;;;6.90;99.90;;;;;;4965399;28;20140;-81
2022/01/06 13:04:38;;;;;;;5.22;1.85;;;7.00;99.90;;;;;;4965001;28;20039;-82
2022/01/06 13:07:11;;;;;;;4.70;1.08;;;8.00;99.90;;;;;;4938117;29;20449;-81
2022/01/06 13:09:40;;;;;;;10.02;1.15;;;9.20;99.90;;;;;;4938565;29;20127;-82
2022/01/06 13:12:10;;;;;;;9.93;1.35;;;10.00;99.90;;;;;;4939422;29;20123;-81
2022/01/06 13:14:43;;;;;;;5.75;1.60;;;10.60;99.90;;;;;;4950640;29;20051;-81
2022/01/06 13:17:15;;;;;;;13.98;3.08;;;10.90;99.90;;;;;;4957607;29;20059;-82
2022/01/06 13:20:10;;;;;;;9.73;2.50;;;10.30;99.90;;;;;;4949777;29;20137;-81
2022/01/06 13:25:29;;;;;;;5.72;1.00;;;9.10;99.90;;;;;;4956618;28;20051;-82